sensor_id;sensor_type;location;lat;lon;timestamp;temperature;humidity
5846;DHT22;2949;50.778;7.094;2023-12-22T00:02:16;5.30;99.90
5846;DHT22;2949;50.778;7.094;2023-12-22T00:04:41;5.30;99.90
5846;DHT22;2949;50.778;7.094;2023-12-22T00:07:07;5.40;99.90
5846;DHT22;2949;50.778;7.094;2023-12-22T00:09:32;5.50;99.90
5846;DHT22;2949;50.778;7.094;2023-12-22T00:11:58;5.60;99.90
5846;DHT22;2949;50.778;7.094;2023-12-22T00:14:23;5.60;99.90
5846;DHT22;2949;50.778;7.094;2023-12-22T00:16:49;5.40;99.90
5846;DHT22;2949;50.778;7.094;2023-12-22T00:19:14;4.90;99.90
5846;DHT22;2949;50.778;7.094;2023-12-22T00:21:40;4.60;99.90
5846;DHT22;2949;50.778;7.094;2023-12-22T00:24:05;4.40;99.90
5846;DHT22;2949;50.778;7.094;2023-12-22T00:26:31;4.30;99.90
5846;DHT22;2949;50.778;7.094;2023-12-22T00:28:57;4.20;99.90
5846;DHT22;2949;50.778;7.094;2023-12-22T00:31:22;4.20;99.90
5846;DHT22;2949;50.778;7.094;2023-12-22T00:33:48;4.20;99.90
5846;DHT22;2949;50.778;7.094;2023-12-22T00:36:13;4.10;99.90
5846;DHT22;2949;50.778;7.094;2023-12-22T00:38:38;4.10;99.90
5846;DHT22;2949;50.778;7.094;2023-12-22T00:41:04;4.20;99.90
5846;DHT22;2949;50.778;7.094;2023-12-22T00:43:29;4.20;99.90
5846;DHT22;2949;50.778;7.094;2023-12-22T00:45:55;4.30;99.90
5846;DHT22;2949;50.778;7.094;2023-12-22T00:48:22;4.30;99.90
5846;DHT22;2949;50.778;7.094;2023-12-22T00:50:48;4.40;99.90
5846;DHT22;2949;50.778;7.094;2023-12-22T00:53:13;4.40;99.90
5846;DHT22;2949;50.778;7.094;2023-12-22T00:55:39;4.50;99.90
5846;DHT22;2949;50.778;7.094;2023-12-22T00:58:04;4.60;99.90
5846;DHT22;2949;50.778;7.094;2023-12-22T01:00:30;4.60;99.90
5846;DHT22;2949;50.778;7.094;2023-12-22T01:02:55;4.60;99.90
5846;DHT22;2949;50.778;7.094;2023-12-22T01:05:21;4.70;99.90
5846;DHT22;2949;50.778;7.094;2023-12-22T01:07:46;4.70;99.90
5846;DHT22;2949;50.778;7.094;2023-12-22T01:10:12;4.80;99.90
5846;DHT22;2949;50.778;7.094;2023-12-22T01:12:38;4.80;99.90
5846;DHT22;2949;50.778;7.094;2023-12-22T01:15:04;4.80;99.90
5846;DHT22;2949;50.778;7.094;2023-12-22T01:17:29;4.80;99.90
5846;DHT22;2949;50.778;7.094;2023-12-22T01:19:55;4.80;99.90
5846;DHT22;2949;50.778;7.094;2023-12-22T01:22:20;4.80;99.90
5846;DHT22;2949;50.778;7.094;2023-12-22T01:24:48;4.80;99.90
5846;DHT22;2949;50.778;7.094;2023-12-22T01:27:13;4.80;99.90
5846;DHT22;2949;50.778;7.094;2023-12-22T01:29:39;4.80;99.90
5846;DHT22;2949;50.778;7.094;2023-12-22T01:32:05;4.80;99.90
5846;DHT22;2949;50.778;7.094;2023-12-22T01:34:30;4.80;99.90
5846;DHT22;2949;50.778;7.094;2023-12-22T01:36:56;4.80;99.90
5846;DHT22;2949;50.778;7.094;2023-12-22T01:39:21;4.90;99.90
5846;DHT22;2949;50.778;7.094;2023-12-22T01:41:47;4.90;99.90
5846;DHT22;2949;50.778;7.094;2023-12-22T01:44:12;4.90;99.90
5846;DHT22;2949;50.778;7.094;2023-12-22T01:46:38;4.90;99.90
5846;DHT22;2949;50.778;7.094;2023-12-22T01:49:05;4.90;99.90
5846;DHT22;2949;50.778;7.094;2023-12-22T01:51:33;4.90;99.90
5846;DHT22;2949;50.778;7.094;2023-12-22T01:54:00;4.90;99.90
5846;DHT22;2949;50.778;7.094;2023-12-22T01:56:26;4.90;99.90
5846;DHT22;2949;50.778;7.094;2023-12-22T01:58:58;4.90;99.90
5846;DHT22;2949;50.778;7.094;2023-12-22T02:01:24;4.90;99.90
5846;DHT22;2949;50.778;7.094;2023-12-22T02:03:51;4.90;99.90
5846;DHT22;2949;50.778;7.094;2023-12-22T02:06:18;4.90;99.90
5846;DHT22;2949;50.778;7.094;2023-12-22T02:08:46;4.90;99.90
5846;DHT22;2949;50.778;7.094;2023-12-22T02:11:12;4.90;99.90
5846;DHT22;2949;50.778;7.094;2023-12-22T02:13:38;4.90;99.90
5846;DHT22;2949;50.778;7.094;2023-12-22T02:16:09;4.90;99.90
5846;DHT22;2949;50.778;7.094;2023-12-22T02:18:39;4.90;99.90
5846;DHT22;2949;50.778;7.094;2023-12-22T02:21:04;4.90;99.90
5846;DHT22;2949;50.778;7.094;2023-12-22T02:23:30;4.80;99.90
5846;DHT22;2949;50.778;7.094;2023-12-22T02:26:02;4.80;99.90
5846;DHT22;2949;50.778;7.094;2023-12-22T02:28:31;4.80;99.90
5846;DHT22;2949;50.778;7.094;2023-12-22T02:31:07;4.80;99.90
5846;DHT22;2949;50.778;7.094;2023-12-22T02:33:36;4.80;99.90
5846;DHT22;2949;50.778;7.094;2023-12-22T02:36:04;4.80;99.90
5846;DHT22;2949;50.778;7.094;2023-12-22T02:38:33;4.80;99.90
5846;DHT22;2949;50.778;7.094;2023-12-22T02:40:59;4.90;99.90
5846;DHT22;2949;50.778;7.094;2023-12-22T02:43:25;4.90;99.90
5846;DHT22;2949;50.778;7.094;2023-12-22T02:45:51;5.00;99.90
5846;DHT22;2949;50.778;7.094;2023-12-22T02:48:17;5.00;99.90
5846;DHT22;2949;50.778;7.094;2023-12-22T02:50:42;5.00;99.90
5846;DHT22;2949;50.778;7.094;2023-12-22T02:53:08;5.10;99.90
5846;DHT22;2949;50.778;7.094;2023-12-22T02:55:33;5.10;99.90
5846;DHT22;2949;50.778;7.094;2023-12-22T02:57:59;5.10;99.90
5846;DHT22;2949;50.778;7.094;2023-12-22T03:00:24;5.10;99.90
5846;DHT22;2949;50.778;7.094;2023-12-22T03:02:50;5.00;99.90
5846;DHT22;2949;50.778;7.094;2023-12-22T03:05:15;5.00;99.90
5846;DHT22;2949;50.778;7.094;2023-12-22T03:07:41;5.00;99.90
5846;DHT22;2949;50.778;7.094;2023-12-22T03:10:07;5.00;99.90
5846;DHT22;2949;50.778;7.094;2023-12-22T03:12:32;5.00;99.90
5846;DHT22;2949;50.778;7.094;2023-12-22T03:14:58;5.10;99.90
5846;DHT22;2949;50.778;7.094;2023-12-22T03:17:23;5.10;99.90
5846;DHT22;2949;50.778;7.094;2023-12-22T03:19:49;5.20;99.90
5846;DHT22;2949;50.778;7.094;2023-12-22T03:22:14;5.30;99.90
5846;DHT22;2949;50.778;7.094;2023-12-22T03:24:39;5.40;99.90
5846;DHT22;2949;50.778;7.094;2023-12-22T03:27:05;5.40;99.90
5846;DHT22;2949;50.778;7.094;2023-12-22T03:29:31;5.40;99.90
5846;DHT22;2949;50.778;7.094;2023-12-22T03:31:56;5.40;99.90
5846;DHT22;2949;50.778;7.094;2023-12-22T03:34:22;5.40;99.90
5846;DHT22;2949;50.778;7.094;2023-12-22T03:36:47;5.50;99.90
5846;DHT22;2949;50.778;7.094;2023-12-22T03:39:14;5.50;99.90
5846;DHT22;2949;50.778;7.094;2023-12-22T03:41:40;5.60;99.90
5846;DHT22;2949;50.778;7.094;2023-12-22T03:44:06;5.70;99.90
5846;DHT22;2949;50.778;7.094;2023-12-22T03:46:32;5.70;99.90
5846;DHT22;2949;50.778;7.094;2023-12-22T03:48:57;5.80;99.90
5846;DHT22;2949;50.778;7.094;2023-12-22T03:51:23;5.80;99.90
5846;DHT22;2949;50.778;7.094;2023-12-22T03:53:49;5.90;99.90
5846;DHT22;2949;50.778;7.094;2023-12-22T03:56:14;5.90;99.90
5846;DHT22;2949;50.778;7.094;2023-12-22T03:58:40;5.90;99.90
5846;DHT22;2949;50.778;7.094;2023-12-22T04:01:05;6.00;99.90
5846;DHT22;2949;50.778;7.094;2023-12-22T04:03:33;6.00;99.90
5846;DHT22;2949;50.778;7.094;2023-12-22T04:06:02;6.00;99.90
5846;DHT22;2949;50.778;7.094;2023-12-22T04:08:28;6.00;99.90
5846;DHT22;2949;50.778;7.094;2023-12-22T04:10:53;6.00;99.90
5846;DHT22;2949;50.778;7.094;2023-12-22T04:13:18;6.00;99.90
5846;DHT22;2949;50.778;7.094;2023-12-22T04:15:44;6.00;99.90
5846;DHT22;2949;50.778;7.094;2023-12-22T04:18:09;5.90;99.90
5846;DHT22;2949;50.778;7.094;2023-12-22T04:20:35;5.90;99.90
5846;DHT22;2949;50.778;7.094;2023-12-22T04:23:00;5.90;99.90
5846;DHT22;2949;50.778;7.094;2023-12-22T04:25:26;5.90;99.90
5846;DHT22;2949;50.778;7.094;2023-12-22T04:27:52;5.90;99.90
5846;DHT22;2949;50.778;7.094;2023-12-22T04:30:17;5.80;99.90
5846;DHT22;2949;50.778;7.094;2023-12-22T04:32:43;5.80;99.90
5846;DHT22;2949;50.778;7.094;2023-12-22T04:35:09;5.80;99.90
5846;DHT22;2949;50.778;7.094;2023-12-22T04:37:34;5.70;99.90
5846;DHT22;2949;50.778;7.094;2023-12-22T04:40:00;5.70;99.90
5846;DHT22;2949;50.778;7.094;2023-12-22T04:42:26;5.70;99.90
5846;DHT22;2949;50.778;7.094;2023-12-22T04:44:52;5.70;99.90
5846;DHT22;2949;50.778;7.094;2023-12-22T04:47:17;5.60;99.90
5846;DHT22;2949;50.778;7.094;2023-12-22T04:49:43;5.60;99.90
5846;DHT22;2949;50.778;7.094;2023-12-22T04:52:10;5.50;99.90
5846;DHT22;2949;50.778;7.094;2023-12-22T04:54:36;5.50;99.90
5846;DHT22;2949;50.778;7.094;2023-12-22T04:57:02;5.50;99.90
5846;DHT22;2949;50.778;7.094;2023-12-22T04:59:27;5.50;99.90
5846;DHT22;2949;50.778;7.094;2023-12-22T05:01:53;5.50;99.90
5846;DHT22;2949;50.778;7.094;2023-12-22T05:04:18;5.50;99.90
5846;DHT22;2949;50.778;7.094;2023-12-22T05:06:44;5.60;99.90
5846;DHT22;2949;50.778;7.094;2023-12-22T05:09:10;5.60;99.90
5846;DHT22;2949;50.778;7.094;2023-12-22T05:11:36;5.60;99.90
5846;DHT22;2949;50.778;7.094;2023-12-22T05:14:02;5.70;99.90
5846;DHT22;2949;50.778;7.094;2023-12-22T05:16:27;5.70;99.90
5846;DHT22;2949;50.778;7.094;2023-12-22T05:18:56;5.80;99.90
5846;DHT22;2949;50.778;7.094;2023-12-22T05:21:22;5.90;99.90
5846;DHT22;2949;50.778;7.094;2023-12-22T05:23:47;5.90;99.90
5846;DHT22;2949;50.778;7.094;2023-12-22T05:26:20;6.00;99.90
5846;DHT22;2949;50.778;7.094;2023-12-22T05:28:46;6.10;99.90
5846;DHT22;2949;50.778;7.094;2023-12-22T05:31:11;6.10;99.90
5846;DHT22;2949;50.778;7.094;2023-12-22T05:33:37;6.20;99.90
5846;DHT22;2949;50.778;7.094;2023-12-22T05:36:03;6.20;99.90
5846;DHT22;2949;50.778;7.094;2023-12-22T05:38:29;6.20;99.90
5846;DHT22;2949;50.778;7.094;2023-12-22T05:40:54;6.20;99.90
5846;DHT22;2949;50.778;7.094;2023-12-22T05:43:20;6.30;99.90
5846;DHT22;2949;50.778;7.094;2023-12-22T05:45:45;6.30;99.90
5846;DHT22;2949;50.778;7.094;2023-12-22T05:48:11;6.30;99.90
5846;DHT22;2949;50.778;7.094;2023-12-22T05:50:36;6.40;99.90
5846;DHT22;2949;50.778;7.094;2023-12-22T05:53:02;6.40;99.90
5846;DHT22;2949;50.778;7.094;2023-12-22T05:55:28;6.50;99.90
5846;DHT22;2949;50.778;7.094;2023-12-22T05:57:54;6.50;99.90
5846;DHT22;2949;50.778;7.094;2023-12-22T06:00:21;6.50;99.90
5846;DHT22;2949;50.778;7.094;2023-12-22T06:02:47;6.50;99.90
5846;DHT22;2949;50.778;7.094;2023-12-22T06:05:12;6.50;99.90
5846;DHT22;2949;50.778;7.094;2023-12-22T06:07:39;6.60;99.90
5846;DHT22;2949;50.778;7.094;2023-12-22T06:10:05;6.70;99.90
5846;DHT22;2949;50.778;7.094;2023-12-22T06:12:32;6.70;99.90
5846;DHT22;2949;50.778;7.094;2023-12-22T06:14:57;6.80;99.90
5846;DHT22;2949;50.778;7.094;2023-12-22T06:17:23;6.80;99.90
5846;DHT22;2949;50.778;7.094;2023-12-22T06:19:48;6.80;99.90
5846;DHT22;2949;50.778;7.094;2023-12-22T06:22:14;6.80;99.90
5846;DHT22;2949;50.778;7.094;2023-12-22T06:24:39;6.80;99.90
5846;DHT22;2949;50.778;7.094;2023-12-22T06:27:05;6.80;99.90
5846;DHT22;2949;50.778;7.094;2023-12-22T06:29:32;6.90;99.90
5846;DHT22;2949;50.778;7.094;2023-12-22T06:31:57;7.00;99.90
5846;DHT22;2949;50.778;7.094;2023-12-22T06:34:23;7.10;99.90
5846;DHT22;2949;50.778;7.094;2023-12-22T06:36:50;7.10;99.90
5846;DHT22;2949;50.778;7.094;2023-12-22T06:39:15;7.10;99.90
5846;DHT22;2949;50.778;7.094;2023-12-22T06:41:41;7.20;99.90
5846;DHT22;2949;50.778;7.094;2023-12-22T06:44:07;7.20;99.90
5846;DHT22;2949;50.778;7.094;2023-12-22T06:46:32;7.20;99.90
5846;DHT22;2949;50.778;7.094;2023-12-22T06:48:59;7.20;99.90
5846;DHT22;2949;50.778;7.094;2023-12-22T06:51:27;7.20;99.90
5846;DHT22;2949;50.778;7.094;2023-12-22T06:53:54;7.20;99.90
5846;DHT22;2949;50.778;7.094;2023-12-22T06:56:27;7.30;99.90
5846;DHT22;2949;50.778;7.094;2023-12-22T06:58:54;7.30;99.90
5846;DHT22;2949;50.778;7.094;2023-12-22T07:01:24;7.30;99.90
5846;DHT22;2949;50.778;7.094;2023-12-22T07:03:50;7.30;99.90
5846;DHT22;2949;50.778;7.094;2023-12-22T07:06:16;7.30;99.90
5846;DHT22;2949;50.778;7.094;2023-12-22T07:08:43;7.30;99.90
5846;DHT22;2949;50.778;7.094;2023-12-22T07:11:09;7.30;99.90
5846;DHT22;2949;50.778;7.094;2023-12-22T07:13:35;7.30;99.90
5846;DHT22;2949;50.778;7.094;2023-12-22T07:16:01;7.30;99.90
5846;DHT22;2949;50.778;7.094;2023-12-22T07:18:27;7.20;99.90
5846;DHT22;2949;50.778;7.094;2023-12-22T07:20:59;7.20;99.90
5846;DHT22;2949;50.778;7.094;2023-12-22T07:23:25;7.20;99.90
5846;DHT22;2949;50.778;7.094;2023-12-22T07:25:50;7.10;99.90
5846;DHT22;2949;50.778;7.094;2023-12-22T07:28:16;7.10;99.90
5846;DHT22;2949;50.778;7.094;2023-12-22T07:30:42;7.10;99.90
5846;DHT22;2949;50.778;7.094;2023-12-22T07:33:07;7.10;99.90
5846;DHT22;2949;50.778;7.094;2023-12-22T07:35:33;7.10;99.90
5846;DHT22;2949;50.778;7.094;2023-12-22T07:37:59;7.10;99.90
5846;DHT22;2949;50.778;7.094;2023-12-22T07:40:25;7.00;99.90
5846;DHT22;2949;50.778;7.094;2023-12-22T07:42:50;7.00;99.90
5846;DHT22;2949;50.778;7.094;2023-12-22T07:45:16;7.00;99.90
5846;DHT22;2949;50.778;7.094;2023-12-22T07:47:42;7.00;99.90
5846;DHT22;2949;50.778;7.094;2023-12-22T07:50:07;7.00;99.90
5846;DHT22;2949;50.778;7.094;2023-12-22T07:52:35;7.00;99.90
5846;DHT22;2949;50.778;7.094;2023-12-22T07:55:08;7.00;99.90
5846;DHT22;2949;50.778;7.094;2023-12-22T07:57:37;7.00;99.90
5846;DHT22;2949;50.778;7.094;2023-12-22T08:00:04;7.00;99.90
5846;DHT22;2949;50.778;7.094;2023-12-22T08:02:30;7.10;99.90
5846;DHT22;2949;50.778;7.094;2023-12-22T08:04:56;7.10;99.90
5846;DHT22;2949;50.778;7.094;2023-12-22T08:07:22;7.20;99.90
5846;DHT22;2949;50.778;7.094;2023-12-22T08:09:47;7.20;99.90
5846;DHT22;2949;50.778;7.094;2023-12-22T08:12:13;7.20;99.90
5846;DHT22;2949;50.778;7.094;2023-12-22T08:14:38;7.30;99.90
5846;DHT22;2949;50.778;7.094;2023-12-22T08:17:04;7.30;99.90
5846;DHT22;2949;50.778;7.094;2023-12-22T08:19:29;7.40;99.90
5846;DHT22;2949;50.778;7.094;2023-12-22T08:21:55;7.50;99.90
5846;DHT22;2949;50.778;7.094;2023-12-22T08:24:21;7.50;99.90
5846;DHT22;2949;50.778;7.094;2023-12-22T08:26:47;7.50;99.90
5846;DHT22;2949;50.778;7.094;2023-12-22T08:29:13;7.50;99.90
5846;DHT22;2949;50.778;7.094;2023-12-22T08:31:39;7.60;99.90
5846;DHT22;2949;50.778;7.094;2023-12-22T08:34:04;7.70;99.90
5846;DHT22;2949;50.778;7.094;2023-12-22T08:36:31;7.80;99.90
5846;DHT22;2949;50.778;7.094;2023-12-22T08:38:56;7.90;99.90
5846;DHT22;2949;50.778;7.094;2023-12-22T08:41:22;7.90;99.90
5846;DHT22;2949;50.778;7.094;2023-12-22T08:43:47;8.00;99.90
5846;DHT22;2949;50.778;7.094;2023-12-22T08:46:13;8.00;99.90
5846;DHT22;2949;50.778;7.094;2023-12-22T08:48:39;8.10;99.90
5846;DHT22;2949;50.778;7.094;2023-12-22T08:51:04;8.10;99.90
5846;DHT22;2949;50.778;7.094;2023-12-22T08:53:30;8.10;99.90
5846;DHT22;2949;50.778;7.094;2023-12-22T08:55:59;8.20;99.90
5846;DHT22;2949;50.778;7.094;2023-12-22T08:58:26;8.20;99.90
5846;DHT22;2949;50.778;7.094;2023-12-22T09:00:51;8.20;99.90
5846;DHT22;2949;50.778;7.094;2023-12-22T09:03:17;8.30;99.90
5846;DHT22;2949;50.778;7.094;2023-12-22T09:05:42;8.30;99.90
5846;DHT22;2949;50.778;7.094;2023-12-22T09:08:08;8.40;99.90
5846;DHT22;2949;50.778;7.094;2023-12-22T09:10:33;8.40;99.90
5846;DHT22;2949;50.778;7.094;2023-12-22T09:12:59;8.40;99.90
5846;DHT22;2949;50.778;7.094;2023-12-22T09:15:25;8.50;99.90
5846;DHT22;2949;50.778;7.094;2023-12-22T09:17:52;8.50;99.90
5846;DHT22;2949;50.778;7.094;2023-12-22T09:20:18;8.60;99.90
5846;DHT22;2949;50.778;7.094;2023-12-22T09:22:44;8.50;99.90
5846;DHT22;2949;50.778;7.094;2023-12-22T09:25:09;8.60;99.90
5846;DHT22;2949;50.778;7.094;2023-12-22T09:27:35;8.60;99.90
5846;DHT22;2949;50.778;7.094;2023-12-22T09:30:00;8.60;99.90
5846;DHT22;2949;50.778;7.094;2023-12-22T09:32:26;8.70;99.90
5846;DHT22;2949;50.778;7.094;2023-12-22T09:34:52;8.70;99.90
5846;DHT22;2949;50.778;7.094;2023-12-22T09:37:18;8.70;99.90
5846;DHT22;2949;50.778;7.094;2023-12-22T09:39:43;8.70;99.90
5846;DHT22;2949;50.778;7.094;2023-12-22T09:42:08;8.60;99.90
5846;DHT22;2949;50.778;7.094;2023-12-22T09:44:36;8.70;99.90
5846;DHT22;2949;50.778;7.094;2023-12-22T09:47:04;8.70;99.90
5846;DHT22;2949;50.778;7.094;2023-12-22T09:49:35;8.70;99.90
5846;DHT22;2949;50.778;7.094;2023-12-22T09:52:02;8.70;99.90
5846;DHT22;2949;50.778;7.094;2023-12-22T09:54:31;8.80;99.90
5846;DHT22;2949;50.778;7.094;2023-12-22T09:56:58;8.90;99.90
5846;DHT22;2949;50.778;7.094;2023-12-22T09:59:25;8.90;99.90
5846;DHT22;2949;50.778;7.094;2023-12-22T10:01:52;8.90;99.90
5846;DHT22;2949;50.778;7.094;2023-12-22T10:04:20;8.90;99.90
5846;DHT22;2949;50.778;7.094;2023-12-22T10:06:47;8.90;99.90
5846;DHT22;2949;50.778;7.094;2023-12-22T10:09:14;8.90;99.90
5846;DHT22;2949;50.778;7.094;2023-12-22T10:11:43;8.90;99.90
5846;DHT22;2949;50.778;7.094;2023-12-22T10:14:09;8.90;99.90
5846;DHT22;2949;50.778;7.094;2023-12-22T10:16:36;9.00;99.90
5846;DHT22;2949;50.778;7.094;2023-12-22T10:19:05;9.00;99.90
5846;DHT22;2949;50.778;7.094;2023-12-22T10:21:32;9.00;99.90
5846;DHT22;2949;50.778;7.094;2023-12-22T10:23:57;9.10;99.90
5846;DHT22;2949;50.778;7.094;2023-12-22T10:26:23;9.00;99.90
5846;DHT22;2949;50.778;7.094;2023-12-22T10:28:48;9.00;99.90
5846;DHT22;2949;50.778;7.094;2023-12-22T10:31:14;9.00;99.90
5846;DHT22;2949;50.778;7.094;2023-12-22T10:33:40;9.00;99.90
5846;DHT22;2949;50.778;7.094;2023-12-22T10:36:07;9.00;99.90
5846;DHT22;2949;50.778;7.094;2023-12-22T10:38:33;8.90;99.90
5846;DHT22;2949;50.778;7.094;2023-12-22T10:41:01;8.90;99.90
5846;DHT22;2949;50.778;7.094;2023-12-22T10:43:26;8.90;99.90
5846;DHT22;2949;50.778;7.094;2023-12-22T10:45:52;8.90;99.90
5846;DHT22;2949;50.778;7.094;2023-12-22T10:48:18;8.90;99.90
5846;DHT22;2949;50.778;7.094;2023-12-22T10:50:44;8.90;99.90
5846;DHT22;2949;50.778;7.094;2023-12-22T10:53:12;8.90;99.90
5846;DHT22;2949;50.778;7.094;2023-12-22T10:55:38;8.80;99.90
5846;DHT22;2949;50.778;7.094;2023-12-22T10:58:04;8.80;99.90
5846;DHT22;2949;50.778;7.094;2023-12-22T11:00:32;8.80;99.90
5846;DHT22;2949;50.778;7.094;2023-12-22T11:03:02;8.80;99.90
5846;DHT22;2949;50.778;7.094;2023-12-22T11:05:29;8.70;99.90
5846;DHT22;2949;50.778;7.094;2023-12-22T11:08:00;8.60;99.90
5846;DHT22;2949;50.778;7.094;2023-12-22T11:10:30;8.60;99.90
5846;DHT22;2949;50.778;7.094;2023-12-22T11:12:57;8.60;99.90
5846;DHT22;2949;50.778;7.094;2023-12-22T11:15:24;8.60;99.90
5846;DHT22;2949;50.778;7.094;2023-12-22T11:17:51;8.60;99.90
5846;DHT22;2949;50.778;7.094;2023-12-22T11:20:18;8.60;99.90
5846;DHT22;2949;50.778;7.094;2023-12-22T11:22:43;8.70;99.90
5846;DHT22;2949;50.778;7.094;2023-12-22T11:25:10;8.80;99.90
5846;DHT22;2949;50.778;7.094;2023-12-22T11:27:36;8.90;99.90
5846;DHT22;2949;50.778;7.094;2023-12-22T11:30:05;9.00;99.90
5846;DHT22;2949;50.778;7.094;2023-12-22T11:32:34;9.10;99.90
5846;DHT22;2949;50.778;7.094;2023-12-22T11:34:59;9.20;99.90
5846;DHT22;2949;50.778;7.094;2023-12-22T11:37:25;9.20;99.90
5846;DHT22;2949;50.778;7.094;2023-12-22T11:39:51;9.30;99.90
5846;DHT22;2949;50.778;7.094;2023-12-22T11:42:21;9.30;99.90
5846;DHT22;2949;50.778;7.094;2023-12-22T11:44:48;9.40;99.90
5846;DHT22;2949;50.778;7.094;2023-12-22T11:47:14;9.40;99.90
5846;DHT22;2949;50.778;7.094;2023-12-22T11:49:40;9.40;99.90
5846;DHT22;2949;50.778;7.094;2023-12-22T11:52:16;9.40;99.90
5846;DHT22;2949;50.778;7.094;2023-12-22T11:54:53;9.40;99.90
5846;DHT22;2949;50.778;7.094;2023-12-22T12:02:31;9.40;99.90
5846;DHT22;2949;50.778;7.094;2023-12-22T12:04:58;9.40;99.90
5846;DHT22;2949;50.778;7.094;2023-12-22T12:07:43;9.30;99.90
5846;DHT22;2949;50.778;7.094;2023-12-22T12:13:06;9.30;99.90
5846;DHT22;2949;50.778;7.094;2023-12-22T12:15:33;9.40;99.90
5846;DHT22;2949;50.778;7.094;2023-12-22T12:18:00;9.50;99.90
5846;DHT22;2949;50.778;7.094;2023-12-22T12:20:26;9.60;99.90
5846;DHT22;2949;50.778;7.094;2023-12-22T12:22:56;9.70;99.90
5846;DHT22;2949;50.778;7.094;2023-12-22T12:25:22;9.80;99.90
5846;DHT22;2949;50.778;7.094;2023-12-22T12:28:05;9.90;99.90
5846;DHT22;2949;50.778;7.094;2023-12-22T12:30:31;10.00;99.90
5846;DHT22;2949;50.778;7.094;2023-12-22T12:33:12;10.10;99.90
5846;DHT22;2949;50.778;7.094;2023-12-22T12:35:38;10.10;99.90
5846;DHT22;2949;50.778;7.094;2023-12-22T12:38:04;10.10;99.90
5846;DHT22;2949;50.778;7.094;2023-12-22T12:40:30;10.00;99.90
5846;DHT22;2949;50.778;7.094;2023-12-22T12:42:58;10.00;99.90
5846;DHT22;2949;50.778;7.094;2023-12-22T12:45:24;10.10;99.90
5846;DHT22;2949;50.778;7.094;2023-12-22T12:47:57;10.10;99.90
5846;DHT22;2949;50.778;7.094;2023-12-22T12:50:24;10.10;99.90
5846;DHT22;2949;50.778;7.094;2023-12-22T12:52:51;10.10;99.90
5846;DHT22;2949;50.778;7.094;2023-12-22T12:55:21;10.10;99.90
5846;DHT22;2949;50.778;7.094;2023-12-22T12:57:50;10.10;99.90
5846;DHT22;2949;50.778;7.094;2023-12-22T13:00:30;10.10;99.90
5846;DHT22;2949;50.778;7.094;2023-12-22T13:03:03;10.10;99.90
5846;DHT22;2949;50.778;7.094;2023-12-22T13:05:29;10.10;99.90
5846;DHT22;2949;50.778;7.094;2023-12-22T13:08:07;10.10;99.90
5846;DHT22;2949;50.778;7.094;2023-12-22T13:10:33;10.10;99.90
5846;DHT22;2949;50.778;7.094;2023-12-22T13:12:59;10.10;99.90
5846;DHT22;2949;50.778;7.094;2023-12-22T13:15:24;10.00;99.90
5846;DHT22;2949;50.778;7.094;2023-12-22T13:17:50;10.00;99.90
5846;DHT22;2949;50.778;7.094;2023-12-22T13:20:16;9.90;99.90
5846;DHT22;2949;50.778;7.094;2023-12-22T13:22:42;9.80;99.90
5846;DHT22;2949;50.778;7.094;2023-12-22T13:25:08;9.70;99.90
5846;DHT22;2949;50.778;7.094;2023-12-22T13:27:49;9.60;99.90
5846;DHT22;2949;50.778;7.094;2023-12-22T13:30:35;9.50;99.90
5846;DHT22;2949;50.778;7.094;2023-12-22T13:33:06;9.50;99.90
5846;DHT22;2949;50.778;7.094;2023-12-22T13:35:32;9.40;99.90
5846;DHT22;2949;50.778;7.094;2023-12-22T13:38:00;9.30;99.90
5846;DHT22;2949;50.778;7.094;2023-12-22T13:40:26;9.30;99.90
5846;DHT22;2949;50.778;7.094;2023-12-22T13:42:56;9.40;99.90
5846;DHT22;2949;50.778;7.094;2023-12-22T13:45:23;9.40;99.90
5846;DHT22;2949;50.778;7.094;2023-12-22T13:47:49;9.40;99.90
5846;DHT22;2949;50.778;7.094;2023-12-22T13:50:18;9.40;99.90
5846;DHT22;2949;50.778;7.094;2023-12-22T13:52:44;9.50;99.90
5846;DHT22;2949;50.778;7.094;2023-12-22T13:55:14;9.50;99.90
5846;DHT22;2949;50.778;7.094;2023-12-22T13:57:41;9.60;99.90
5846;DHT22;2949;50.778;7.094;2023-12-22T14:00:27;9.70;99.90
5846;DHT22;2949;50.778;7.094;2023-12-22T14:02:54;9.70;99.90
5846;DHT22;2949;50.778;7.094;2023-12-22T14:05:20;9.70;99.90
5846;DHT22;2949;50.778;7.094;2023-12-22T14:07:46;9.70;99.90
5846;DHT22;2949;50.778;7.094;2023-12-22T14:10:12;9.70;99.90
5846;DHT22;2949;50.778;7.094;2023-12-22T14:12:38;9.70;99.90
5846;DHT22;2949;50.778;7.094;2023-12-22T14:15:13;9.70;99.90
5846;DHT22;2949;50.778;7.094;2023-12-22T14:17:39;9.70;99.90
5846;DHT22;2949;50.778;7.094;2023-12-22T14:20:05;9.80;99.90
5846;DHT22;2949;50.778;7.094;2023-12-22T14:22:32;9.80;99.90
5846;DHT22;2949;50.778;7.094;2023-12-22T14:24:57;9.80;99.90
5846;DHT22;2949;50.778;7.094;2023-12-22T14:27:23;9.80;99.90
5846;DHT22;2949;50.778;7.094;2023-12-22T14:29:49;9.70;99.90
5846;DHT22;2949;50.778;7.094;2023-12-22T14:32:14;9.80;99.90
5846;DHT22;2949;50.778;7.094;2023-12-22T14:34:50;9.80;99.90
5846;DHT22;2949;50.778;7.094;2023-12-22T14:37:15;9.80;99.90
5846;DHT22;2949;50.778;7.094;2023-12-22T14:39:45;9.80;99.90
5846;DHT22;2949;50.778;7.094;2023-12-22T14:42:11;9.80;99.90
5846;DHT22;2949;50.778;7.094;2023-12-22T14:44:36;9.70;99.90
5846;DHT22;2949;50.778;7.094;2023-12-22T14:47:04;9.70;99.90
5846;DHT22;2949;50.778;7.094;2023-12-22T14:49:30;9.60;99.90
5846;DHT22;2949;50.778;7.094;2023-12-22T14:51:56;9.60;99.90
5846;DHT22;2949;50.778;7.094;2023-12-22T14:54:24;9.50;99.90
5846;DHT22;2949;50.778;7.094;2023-12-22T14:56:49;9.40;99.90
5846;DHT22;2949;50.778;7.094;2023-12-22T14:59:16;9.40;99.90
5846;DHT22;2949;50.778;7.094;2023-12-22T15:01:42;9.40;99.90
5846;DHT22;2949;50.778;7.094;2023-12-22T15:04:08;9.40;99.90
5846;DHT22;2949;50.778;7.094;2023-12-22T15:06:43;9.50;99.90
5846;DHT22;2949;50.778;7.094;2023-12-22T15:09:09;9.50;99.90
5846;DHT22;2949;50.778;7.094;2023-12-22T15:11:44;9.50;99.90
5846;DHT22;2949;50.778;7.094;2023-12-22T15:14:10;9.50;99.90
5846;DHT22;2949;50.778;7.094;2023-12-22T15:16:42;9.50;99.90
5846;DHT22;2949;50.778;7.094;2023-12-22T15:19:14;9.50;99.90
5846;DHT22;2949;50.778;7.094;2023-12-22T15:21:40;9.50;99.90
5846;DHT22;2949;50.778;7.094;2023-12-22T15:24:06;9.50;99.90
5846;DHT22;2949;50.778;7.094;2023-12-22T15:26:32;9.50;99.90
5846;DHT22;2949;50.778;7.094;2023-12-22T15:29:02;9.40;99.90
5846;DHT22;2949;50.778;7.094;2023-12-22T15:31:27;9.40;99.90
5846;DHT22;2949;50.778;7.094;2023-12-22T15:33:56;9.40;99.90
5846;DHT22;2949;50.778;7.094;2023-12-22T15:36:22;9.40;99.90
5846;DHT22;2949;50.778;7.094;2023-12-22T15:38:48;9.40;99.90
5846;DHT22;2949;50.778;7.094;2023-12-22T15:41:14;9.30;99.90
5846;DHT22;2949;50.778;7.094;2023-12-22T15:43:41;9.40;99.90
5846;DHT22;2949;50.778;7.094;2023-12-22T15:46:07;9.30;99.90
5846;DHT22;2949;50.778;7.094;2023-12-22T15:48:36;9.30;99.90
5846;DHT22;2949;50.778;7.094;2023-12-22T15:53:32;9.30;99.90
5846;DHT22;2949;50.778;7.094;2023-12-22T15:55:58;9.30;99.90
5846;DHT22;2949;50.778;7.094;2023-12-22T15:58:28;9.30;99.90
5846;DHT22;2949;50.778;7.094;2023-12-22T16:00:53;9.30;99.90
5846;DHT22;2949;50.778;7.094;2023-12-22T16:03:18;9.30;99.90
5846;DHT22;2949;50.778;7.094;2023-12-22T16:05:44;9.30;99.90
5846;DHT22;2949;50.778;7.094;2023-12-22T16:08:09;9.30;99.90
5846;DHT22;2949;50.778;7.094;2023-12-22T16:10:35;9.30;99.90
5846;DHT22;2949;50.778;7.094;2023-12-22T16:13:00;9.30;99.90
5846;DHT22;2949;50.778;7.094;2023-12-22T16:15:26;9.30;99.90
5846;DHT22;2949;50.778;7.094;2023-12-22T16:17:51;9.30;99.90
5846;DHT22;2949;50.778;7.094;2023-12-22T16:20:17;9.30;99.90
5846;DHT22;2949;50.778;7.094;2023-12-22T16:22:42;9.30;99.90
5846;DHT22;2949;50.778;7.094;2023-12-22T16:25:08;9.30;99.90